Time;durP1;ratioP1;P1;durP2;ratioP2;P2;SDS_P1;SDS_P2;PMS_P1;PMS_P2;Temp;Humidity;BMP_temperature;BMP_pressure;BME280_temperature;BME280_humidity;BME280_pressure;Samples;Min_cycle;Max_cycle;Signal;HPM_P1;HPM_P2
2022/10/13 00:01:07;;;;;;;1999.90;999.90;;;;;;;;;;5108909;27;20522;-80
2022/10/13 00:03:36;;;;;;;1999.90;999.90;;;;;;;;;;5092815;27;20253;-82
2022/10/13 00:06:05;;;;;;;1999.90;999.90;;;;;;;;;;5108954;27;20269;-83
2022/10/13 00:08:34;;;;;;;1999.90;999.90;;;;;;;;;;5105805;27;21087;-82
2022/10/13 00:11:02;;;;;;;1999.90;999.90;;;;;;;;;;5087201;27;20254;-83
2022/10/13 00:13:36;;;;;;;1999.90;999.90;;;;;;;;;;5091984;27;20221;-81
2022/10/13 00:16:04;;;;;;;1999.90;999.90;;;;;;;;;;5089647;27;20679;-83
2022/10/13 00:18:43;;;;;;;1999.90;999.90;;;;;;;;;;5092792;27;20224;-83
2022/10/13 00:21:58;;;;;;;1999.90;999.90;;;;;;;;;;5052032;28;20228;-82
2022/10/13 00:24:27;;;;;;;1999.90;999.90;;;;;;;;;;5109117;27;20385;-82
2022/10/13 00:26:55;;;;;;;1999.90;999.90;;;;;;;;;;5106522;27;20279;-83
2022/10/13 00:29:25;;;;;;;1999.90;999.90;;;;;;;;;;5107697;27;20266;-83
2022/10/13 00:31:53;;;;;;;1999.90;999.90;;;;;;;;;;5122669;27;21463;-83
2022/10/13 00:34:21;;;;;;;1999.90;999.90;;;;;;;;;;5113228;27;20781;-82
2022/10/13 00:36:48;;;;;;;1999.90;999.90;;;;;;;;;;5124680;27;20401;-83
2022/10/13 00:39:17;;;;;;;1999.90;999.90;;;;;;;;;;5114968;27;20382;-82
2022/10/13 00:41:46;;;;;;;1999.90;999.90;;;;;;;;;;5101048;27;20325;-82
2022/10/13 00:44:32;;;;;;;1999.90;999.90;;;;;;;;;;5114056;27;21553;-82
2022/10/13 00:47:02;;;;;;;1999.90;999.90;;;;;;;;;;5092582;27;20309;-83
2022/10/13 00:49:30;;;;;;;1999.90;999.90;;;;;;;;;;5124076;27;20392;-83
2022/10/13 00:51:58;;;;;;;1999.90;999.90;;;;;;;;;;5113264;27;20225;-81
2022/10/13 00:54:26;;;;;;;1999.90;999.90;;;;;;;;;;5110484;27;20230;-80
2022/10/13 00:56:54;;;;;;;1999.90;999.90;;;;;;;;;;5118969;27;20236;-82
2022/10/13 00:59:25;;;;;;;1999.90;999.90;;;;;;;;;;5095257;27;20230;-83
2022/10/13 01:01:53;;;;;;;1999.90;999.90;;;;;;;;;;5125332;27;20225;-82
2022/10/13 01:04:23;;;;;;;1999.90;999.90;;;;;;;;;;5087940;27;20698;-82
2022/10/13 01:06:51;;;;;;;1999.90;999.90;;;;;;;;;;5095600;27;20322;-82
2022/10/13 01:09:22;;;;;;;1999.90;999.90;;;;;;;;;;5114553;27;20344;-82
2022/10/13 01:11:56;;;;;;;1999.90;999.90;;;;;;;;;;5093698;27;20274;-83
2022/10/13 01:14:28;;;;;;;1999.90;999.90;;;;;;;;;;5114140;27;20261;-82
2022/10/13 01:17:00;;;;;;;1999.90;999.90;;;;;;;;;;5107294;27;20244;-82
2022/10/13 01:19:39;;;;;;;1999.90;999.90;;;;;;;;;;5112208;27;20225;-81
2022/10/13 01:22:13;;;;;;;1999.90;999.90;;;;;;;;;;5106106;27;20248;-83
2022/10/13 01:24:44;;;;;;;1999.90;999.90;;;;;;;;;;5124339;27;20257;-82
2022/10/13 01:27:21;;;;;;;1999.90;999.90;;;;;;;;;;5099075;27;20324;-81
2022/10/13 01:30:05;;;;;;;1999.90;999.90;;;;;;;;;;5137718;27;21096;-82
2022/10/13 01:32:40;;;;;;;1999.90;999.90;;;;;;;;;;5103240;27;20232;-82
2022/10/13 01:35:13;;;;;;;1999.90;999.90;;;;;;;;;;5095606;27;20222;-82
2022/10/13 01:37:44;;;;;;;1999.90;999.90;;;;;;;;;;5151388;22;20241;-72
2022/10/13 01:40:15;;;;;;;1999.90;999.90;;;;;;;;;;5115548;27;21495;-70
2022/10/13 01:42:45;;;;;;;1999.90;999.90;;;;;;;;;;5138241;27;20341;-72
2022/10/13 01:45:17;;;;;;;1999.90;999.90;;;;;;;;;;5125069;27;20316;-72
2022/10/13 01:47:46;;;;;;;1999.90;999.90;;;;;;;;;;5128990;27;20315;-72
2022/10/13 01:50:15;;;;;;;1999.90;999.90;;;;;;;;;;5161528;27;20256;-71
2022/10/13 01:52:43;;;;;;;1999.90;999.90;;;;;;;;;;5126197;27;20224;-69
2022/10/13 01:55:12;;;;;;;1999.90;999.90;;;;;;;;;;5127054;27;20234;-70
2022/10/13 01:57:41;;;;;;;1999.90;999.90;;;;;;;;;;5144158;27;20276;-74
2022/10/13 02:00:10;;;;;;;1999.90;999.90;;;;;;;;;;5147254;27;20229;-72
2022/10/13 02:02:47;;;;;;;1999.90;999.90;;;;;;;;;;5156686;27;20319;-74
2022/10/13 02:05:19;;;;;;;1999.90;999.90;;;;;;;;;;5122682;27;20313;-75
2022/10/13 02:07:49;;;;;;;1999.90;999.90;;;;;;;;;;5164480;27;20228;-72
2022/10/13 02:10:27;;;;;;;1999.90;999.90;;;;;;;;;;5166761;27;20231;-74
2022/10/13 02:12:57;;;;;;;1999.90;999.90;;;;;;;;;;5147705;27;20697;-73
2022/10/13 02:15:28;;;;;;;1999.90;999.90;;;;;;;;;;5149192;27;20233;-72
2022/10/13 02:18:02;;;;;;;1999.90;999.90;;;;;;;;;;5166297;27;20985;-72
2022/10/13 02:20:30;;;;;;;1999.90;999.90;;;;;;;;;;5166924;27;20289;-74
2022/10/13 02:23:00;;;;;;;1999.90;999.90;;;;;;;;;;5165955;27;20336;-74
2022/10/13 02:25:28;;;;;;;1999.90;999.90;;;;;;;;;;5167165;27;20228;-74
2022/10/13 02:27:58;;;;;;;1999.90;999.90;;;;;;;;;;5147747;27;20315;-74
2022/10/13 02:30:32;;;;;;;1999.90;999.90;;;;;;;;;;5162940;27;20217;-74
2022/10/13 02:33:01;;;;;;;1999.90;999.90;;;;;;;;;;5164798;27;20263;-72
2022/10/13 02:35:29;;;;;;;1999.90;999.90;;;;;;;;;;5145646;27;20225;-75
2022/10/13 02:38:01;;;;;;;1999.90;999.90;;;;;;;;;;5144292;27;20229;-70
2022/10/13 02:40:44;;;;;;;1999.90;999.90;;;;;;;;;;5165602;27;20629;-72
2022/10/13 02:43:12;;;;;;;1999.90;999.90;;;;;;;;;;5143455;27;20648;-72
2022/10/13 02:45:40;;;;;;;1999.90;999.90;;;;;;;;;;5149398;27;20259;-72
2022/10/13 02:48:09;;;;;;;1999.90;999.90;;;;;;;;;;5144717;27;20232;-71
2022/10/13 02:50:36;;;;;;;1999.90;999.90;;;;;;;;;;5161217;27;20235;-71
2022/10/13 02:53:04;;;;;;;1999.90;999.90;;;;;;;;;;5130417;27;20228;-71
2022/10/13 02:55:32;;;;;;;1999.90;999.90;;;;;;;;;;5152856;27;20581;-74
2022/10/13 02:57:59;;;;;;;1999.90;999.90;;;;;;;;;;5136691;27;20954;-78
2022/10/13 03:00:27;;;;;;;1999.90;999.90;;;;;;;;;;5151484;27;20690;-77
2022/10/13 03:02:55;;;;;;;1999.90;999.90;;;;;;;;;;5153349;27;20259;-75
2022/10/13 03:05:24;;;;;;;1999.90;999.90;;;;;;;;;;5153244;27;20228;-74
2022/10/13 03:07:52;;;;;;;1999.90;999.90;;;;;;;;;;5154369;27;20278;-75
2022/10/13 03:10:20;;;;;;;1999.90;999.90;;;;;;;;;;5154397;27;20251;-75
2022/10/13 03:12:50;;;;;;;1999.90;999.90;;;;;;;;;;5147605;27;20221;-76
2022/10/13 03:15:17;;;;;;;1999.90;999.90;;;;;;;;;;5150630;27;20232;-77
2022/10/13 03:17:48;;;;;;;1999.90;999.90;;;;;;;;;;5150558;27;20561;-75
2022/10/13 03:20:15;;;;;;;1999.90;999.90;;;;;;;;;;5171197;27;20327;-74
2022/10/13 03:22:45;;;;;;;1999.90;999.90;;;;;;;;;;5150424;27;20236;-79
2022/10/13 03:25:16;;;;;;;1999.90;999.90;;;;;;;;;;5148123;27;20787;-79
2022/10/13 03:27:44;;;;;;;1999.90;999.90;;;;;;;;;;5152142;27;20233;-73
2022/10/13 03:30:12;;;;;;;1999.90;999.90;;;;;;;;;;5153050;27;20334;-78
2022/10/13 03:32:40;;;;;;;1999.90;999.90;;;;;;;;;;5159057;27;20285;-78
2022/10/13 03:35:08;;;;;;;1999.90;999.90;;;;;;;;;;5152754;27;20227;-76
2022/10/13 03:37:36;;;;;;;1999.90;999.90;;;;;;;;;;5169238;27;20224;-74
2022/10/13 03:40:06;;;;;;;1999.90;999.90;;;;;;;;;;5150980;27;20231;-73
2022/10/13 03:42:35;;;;;;;1999.90;999.90;;;;;;;;;;5168932;27;20273;-75
2022/10/13 03:45:02;;;;;;;1999.90;999.90;;;;;;;;;;5151988;27;20298;-76
2022/10/13 03:47:34;;;;;;;1999.90;999.90;;;;;;;;;;5169358;27;20737;-76
2022/10/13 03:50:03;;;;;;;1999.90;999.90;;;;;;;;;;5169088;27;20230;-74
2022/10/13 03:52:31;;;;;;;1999.90;999.90;;;;;;;;;;5169157;27;20225;-71
2022/10/13 03:54:58;;;;;;;1999.90;999.90;;;;;;;;;;5171333;27;21396;-75
2022/10/13 03:57:28;;;;;;;1999.90;999.90;;;;;;;;;;5151116;27;21242;-76
2022/10/13 03:59:56;;;;;;;1999.90;999.90;;;;;;;;;;5149003;27;20224;-76
2022/10/13 04:02:26;;;;;;;1999.90;999.90;;;;;;;;;;5167392;27;20729;-77
2022/10/13 04:04:54;;;;;;;1999.90;999.90;;;;;;;;;;5148593;27;20324;-74
2022/10/13 04:07:22;;;;;;;1999.90;999.90;;;;;;;;;;5139990;27;20277;-77
2022/10/13 04:09:49;;;;;;;1999.90;999.90;;;;;;;;;;5147531;27;20232;-76
2022/10/13 04:12:18;;;;;;;1999.90;999.90;;;;;;;;;;5144624;27;20673;-76
2022/10/13 04:14:49;;;;;;;1999.90;999.90;;;;;;;;;;5168452;27;20235;-75
2022/10/13 04:17:16;;;;;;;1999.90;999.90;;;;;;;;;;5149263;27;20220;-74
2022/10/13 04:19:44;;;;;;;1999.90;999.90;;;;;;;;;;5166392;27;20229;-76
2022/10/13 04:22:12;;;;;;;1999.90;999.90;;;;;;;;;;5146798;27;20228;-76
2022/10/13 04:24:40;;;;;;;1999.90;999.90;;;;;;;;;;5164083;27;20231;-76
2022/10/13 04:27:09;;;;;;;1999.90;999.90;;;;;;;;;;5164776;27;20359;-77
2022/10/13 04:29:36;;;;;;;1999.90;999.90;;;;;;;;;;5164651;27;20343;-76
2022/10/13 04:32:05;;;;;;;1999.90;999.90;;;;;;;;;;5144675;27;20323;-76
2022/10/13 04:34:33;;;;;;;1999.90;999.90;;;;;;;;;;5157079;27;20320;-77
2022/10/13 04:37:01;;;;;;;1999.90;999.90;;;;;;;;;;5161597;27;20221;-77
2022/10/13 04:39:28;;;;;;;1999.90;999.90;;;;;;;;;;5164381;27;20284;-77
2022/10/13 04:41:56;;;;;;;1999.90;999.90;;;;;;;;;;5162310;27;20227;-77
2022/10/13 04:44:24;;;;;;;1999.90;999.90;;;;;;;;;;5161741;27;20368;-77
2022/10/13 04:46:51;;;;;;;1999.90;999.90;;;;;;;;;;5164089;27;20233;-76
2022/10/13 04:49:20;;;;;;;1999.90;999.90;;;;;;;;;;5166678;27;20309;-77
2022/10/13 04:51:48;;;;;;;1999.90;999.90;;;;;;;;;;5146961;27;20315;-75
2022/10/13 04:54:15;;;;;;;1999.90;999.90;;;;;;;;;;5134591;27;20220;-77
2022/10/13 04:56:44;;;;;;;1999.90;999.90;;;;;;;;;;5146268;27;20216;-76
2022/10/13 04:59:12;;;;;;;1999.90;999.90;;;;;;;;;;5164278;27;20311;-77
2022/10/13 05:01:39;;;;;;;1999.90;999.90;;;;;;;;;;5134171;27;20274;-79
2022/10/13 05:04:12;;;;;;;1999.90;999.90;;;;;;;;;;5165993;27;20236;-78
2022/10/13 05:06:42;;;;;;;1999.90;999.90;;;;;;;;;;5143838;27;20228;-77
2022/10/13 05:09:30;;;;;;;1999.90;999.90;;;;;;;;;;5161804;27;20231;-77
2022/10/13 05:11:58;;;;;;;1999.90;999.90;;;;;;;;;;5153281;27;20232;-78
2022/10/13 05:14:25;;;;;;;1999.90;999.90;;;;;;;;;;5156750;27;20232;-78
2022/10/13 05:16:53;;;;;;;1999.90;999.90;;;;;;;;;;5135458;27;20612;-78
2022/10/13 05:19:21;;;;;;;1999.90;999.90;;;;;;;;;;5143101;27;20232;-78
2022/10/13 05:21:50;;;;;;;1999.90;999.90;;;;;;;;;;5127955;27;20708;-76
2022/10/13 05:24:20;;;;;;;1999.90;999.90;;;;;;;;;;5136428;27;20237;-77
2022/10/13 05:26:49;;;;;;;1999.90;999.90;;;;;;;;;;5166250;27;20256;-76
2022/10/13 05:29:17;;;;;;;1999.90;999.90;;;;;;;;;;5147319;27;20327;-78
2022/10/13 05:31:45;;;;;;;1999.90;999.90;;;;;;;;;;5164797;27;20636;-78
2022/10/13 05:34:13;;;;;;;1999.90;999.90;;;;;;;;;;5137484;27;20915;-79
2022/10/13 05:36:41;;;;;;;1999.90;999.90;;;;;;;;;;5148775;27;20229;-75
2022/10/13 05:39:10;;;;;;;1999.90;999.90;;;;;;;;;;5131739;27;20254;-75
2022/10/13 05:41:39;;;;;;;1999.90;999.90;;;;;;;;;;5133744;27;21017;-77
2022/10/13 05:44:13;;;;;;;1999.90;999.90;;;;;;;;;;5141741;27;20387;-78
2022/10/13 05:46:52;;;;;;;1999.90;999.90;;;;;;;;;;5149989;27;20597;-77
2022/10/13 05:49:20;;;;;;;1999.90;999.90;;;;;;;;;;5152808;27;20254;-74
2022/10/13 05:51:50;;;;;;;1999.90;999.90;;;;;;;;;;5171715;27;20848;-76
2022/10/13 05:54:23;;;;;;;1999.90;999.90;;;;;;;;;;5151992;27;20220;-77
2022/10/13 05:56:53;;;;;;;1999.90;999.90;;;;;;;;;;5151031;27;20717;-75
2022/10/13 05:59:21;;;;;;;1999.90;999.90;;;;;;;;;;5168168;27;20237;-75
2022/10/13 06:01:54;;;;;;;1999.90;999.90;;;;;;;;;;5171863;27;20375;-76
2022/10/13 06:04:26;;;;;;;1999.90;999.90;;;;;;;;;;5168059;27;20236;-75
2022/10/13 06:06:54;;;;;;;1999.90;999.90;;;;;;;;;;5168781;27;20225;-76
2022/10/13 06:09:23;;;;;;;1999.90;999.90;;;;;;;;;;5170588;27;20331;-77
2022/10/13 06:11:51;;;;;;;1999.90;999.90;;;;;;;;;;5148634;27;20225;-75
2022/10/13 06:14:20;;;;;;;1999.90;999.90;;;;;;;;;;5134103;27;20231;-76
2022/10/13 06:16:48;;;;;;;1999.90;999.90;;;;;;;;;;5169970;27;20744;-77
2022/10/13 06:19:16;;;;;;;1999.90;999.90;;;;;;;;;;5169038;27;20232;-78
2022/10/13 06:21:44;;;;;;;1999.90;999.90;;;;;;;;;;5150594;27;20675;-78
2022/10/13 06:24:11;;;;;;;1999.90;999.90;;;;;;;;;;5149070;27;21407;-78
2022/10/13 06:26:40;;;;;;;1999.90;999.90;;;;;;;;;;5132575;27;20231;-77
2022/10/13 06:29:08;;;;;;;1999.90;999.90;;;;;;;;;;5150773;27;20235;-77
2022/10/13 06:31:36;;;;;;;1999.90;999.90;;;;;;;;;;5169577;27;20308;-76
2022/10/13 06:34:04;;;;;;;1999.90;999.90;;;;;;;;;;5167583;27;20224;-77
2022/10/13 06:36:32;;;;;;;1999.90;999.90;;;;;;;;;;5149936;27;20225;-78
2022/10/13 06:38:59;;;;;;;1999.90;999.90;;;;;;;;;;5164497;27;20294;-79
2022/10/13 06:41:27;;;;;;;1999.90;999.90;;;;;;;;;;5151068;27;20255;-78
2022/10/13 06:43:56;;;;;;;1999.90;999.90;;;;;;;;;;5174644;27;21122;-79
2022/10/13 06:46:24;;;;;;;1999.90;999.90;;;;;;;;;;5162969;27;20337;-77
2022/10/13 06:48:51;;;;;;;1999.90;999.90;;;;;;;;;;5174254;27;20254;-78
2022/10/13 06:51:19;;;;;;;1999.90;999.90;;;;;;;;;;5174301;27;20364;-78
2022/10/13 06:53:49;;;;;;;1999.90;999.90;;;;;;;;;;5172711;27;20277;-79
2022/10/13 06:56:20;;;;;;;1999.90;999.90;;;;;;;;;;5172865;27;20223;-80
2022/10/13 06:58:48;;;;;;;1999.90;999.90;;;;;;;;;;5136848;27;20239;-78
2022/10/13 07:01:17;;;;;;;1999.90;999.90;;;;;;;;;;5171737;27;20285;-78
2022/10/13 07:03:47;;;;;;;1999.90;999.90;;;;;;;;;;5172488;27;20250;-77
2022/10/13 07:06:18;;;;;;;1999.90;999.90;;;;;;;;;;5172598;27;20239;-78
2022/10/13 07:08:45;;;;;;;1999.90;999.90;;;;;;;;;;5172174;27;20290;-79
2022/10/13 07:11:17;;;;;;;1999.90;999.90;;;;;;;;;;5173311;27;20717;-77
2022/10/13 07:13:50;;;;;;;1999.90;999.90;;;;;;;;;;5153415;27;20830;-78
2022/10/13 07:16:19;;;;;;;1999.90;999.90;;;;;;;;;;5154072;27;20228;-79
2022/10/13 07:18:47;;;;;;;1999.90;999.90;;;;;;;;;;5154511;27;21144;-78
2022/10/13 07:21:15;;;;;;;1999.90;999.90;;;;;;;;;;5155111;27;20209;-77
2022/10/13 07:23:42;;;;;;;1999.90;999.90;;;;;;;;;;5166143;27;20894;-77
2022/10/13 07:26:11;;;;;;;1999.90;999.90;;;;;;;;;;5171674;27;20328;-79
2022/10/13 07:28:39;;;;;;;1999.90;999.90;;;;;;;;;;5174450;27;20757;-78
2022/10/13 07:31:10;;;;;;;1999.90;999.90;;;;;;;;;;5173920;27;20844;-77
2022/10/13 07:33:40;;;;;;;1999.90;999.90;;;;;;;;;;5140900;27;20292;-79
2022/10/13 07:36:08;;;;;;;1999.90;999.90;;;;;;;;;;5175403;27;20745;-77
2022/10/13 07:38:36;;;;;;;1999.90;999.90;;;;;;;;;;5172083;27;20236;-77
2022/10/13 07:41:04;;;;;;;1999.90;999.90;;;;;;;;;;5170795;27;20224;-78
2022/10/13 07:43:32;;;;;;;1999.90;999.90;;;;;;;;;;5154589;27;20220;-77
2022/10/13 07:46:04;;;;;;;1999.90;999.90;;;;;;;;;;5171252;27;20220;-78
2022/10/13 07:48:33;;;;;;;1999.90;999.90;;;;;;;;;;5135738;27;20224;-79
2022/10/13 07:51:06;;;;;;;1999.90;999.90;;;;;;;;;;5171827;27;20227;-81
2022/10/13 07:53:34;;;;;;;1999.90;999.90;;;;;;;;;;5172235;27;20308;-80
2022/10/13 07:56:01;;;;;;;1999.90;999.90;;;;;;;;;;5150689;27;20221;-80
2022/10/13 07:58:29;;;;;;;1999.90;999.90;;;;;;;;;;5170628;27;20233;-78
2022/10/13 08:00:57;;;;;;;1999.90;999.90;;;;;;;;;;5172416;27;20232;-78
2022/10/13 08:03:26;;;;;;;1999.90;999.90;;;;;;;;;;5149329;27;20228;-79
2022/10/13 08:05:54;;;;;;;1999.90;999.90;;;;;;;;;;5169826;27;20228;-77
2022/10/13 08:08:23;;;;;;;1999.90;999.90;;;;;;;;;;5171263;27;20228;-79
2022/10/13 08:10:51;;;;;;;1999.90;999.90;;;;;;;;;;5152966;27;20224;-81
2022/10/13 08:13:25;;;;;;;1999.90;999.90;;;;;;;;;;5170015;27;20407;-74
2022/10/13 08:15:52;;;;;;;1999.90;999.90;;;;;;;;;;5134548;27;20232;-75
2022/10/13 08:18:22;;;;;;;1999.90;999.90;;;;;;;;;;5167381;27;20240;-74
2022/10/13 08:20:50;;;;;;;1999.90;999.90;;;;;;;;;;5170174;27;21033;-76
2022/10/13 08:23:25;;;;;;;1999.90;999.90;;;;;;;;;;5151353;27;20223;-76
2022/10/13 08:25:53;;;;;;;1999.90;999.90;;;;;;;;;;5170941;27;20228;-76
2022/10/13 08:28:22;;;;;;;1999.90;999.90;;;;;;;;;;5149713;27;20795;-77
2022/10/13 08:30:50;;;;;;;1999.90;999.90;;;;;;;;;;5151090;27;20228;-78
2022/10/13 08:33:19;;;;;;;1999.90;999.90;;;;;;;;;;5151078;27;20231;-77
2022/10/13 08:35:47;;;;;;;1999.90;999.90;;;;;;;;;;5169988;27;20227;-76
2022/10/13 08:38:15;;;;;;;1999.90;999.90;;;;;;;;;;5169567;27;20241;-76
2022/10/13 08:40:47;;;;;;;1999.90;999.90;;;;;;;;;;5152207;27;20232;-74
2022/10/13 08:43:17;;;;;;;1999.90;999.90;;;;;;;;;;5169701;27;20250;-78
2022/10/13 08:45:44;;;;;;;1999.90;999.90;;;;;;;;;;5170239;27;20243;-74
2022/10/13 08:48:15;;;;;;;1999.90;999.90;;;;;;;;;;5151592;27;20236;-76
2022/10/13 08:50:45;;;;;;;1999.90;999.90;;;;;;;;;;5145245;27;20221;-74
2022/10/13 08:53:16;;;;;;;1999.90;999.90;;;;;;;;;;5150478;27;20884;-74
2022/10/13 08:55:49;;;;;;;1999.90;999.90;;;;;;;;;;5151420;27;20227;-76
2022/10/13 08:58:20;;;;;;;1999.90;999.90;;;;;;;;;;5170524;27;21388;-76
2022/10/13 09:00:48;;;;;;;1999.90;999.90;;;;;;;;;;5133164;27;20285;-76
2022/10/13 09:03:21;;;;;;;1999.90;999.90;;;;;;;;;;5151069;27;20345;-77
2022/10/13 09:05:56;;;;;;;1999.90;999.90;;;;;;;;;;5168673;27;20236;-76
2022/10/13 09:08:26;;;;;;;1999.90;999.90;;;;;;;;;;5169533;27;20234;-76
2022/10/13 09:10:55;;;;;;;1999.90;999.90;;;;;;;;;;5150396;27;20300;-77
2022/10/13 09:13:26;;;;;;;1999.90;999.90;;;;;;;;;;5149850;27;20642;-76
2022/10/13 09:15:57;;;;;;;1999.90;999.90;;;;;;;;;;5149181;27;20308;-77
2022/10/13 09:18:28;;;;;;;1999.90;999.90;;;;;;;;;;5150178;27;20783;-76
2022/10/13 09:21:09;;;;;;;1999.90;999.90;;;;;;;;;;5150772;27;20224;-76
2022/10/13 09:23:36;;;;;;;1999.90;999.90;;;;;;;;;;5168923;27;20232;-77
2022/10/13 09:26:15;;;;;;;1999.90;999.90;;;;;;;;;;5168226;27;20794;-77
2022/10/13 09:28:43;;;;;;;1999.90;999.90;;;;;;;;;;5149388;27;20236;-75
2022/10/13 09:31:14;;;;;;;1999.90;999.90;;;;;;;;;;5170214;27;20224;-76
2022/10/13 09:33:42;;;;;;;1999.90;999.90;;;;;;;;;;5150525;27;20408;-75
2022/10/13 09:36:12;;;;;;;1999.90;999.90;;;;;;;;;;5131341;27;20303;-79
2022/10/13 09:38:40;;;;;;;1999.90;999.90;;;;;;;;;;5168068;27;21227;-75
2022/10/13 09:41:15;;;;;;;1999.90;999.90;;;;;;;;;;5149111;27;21000;-78
2022/10/13 09:43:44;;;;;;;1999.90;999.90;;;;;;;;;;5151169;27;20314;-76
2022/10/13 09:46:22;;;;;;;1999.90;999.90;;;;;;;;;;5170214;27;20308;-77
2022/10/13 09:48:51;;;;;;;1999.90;999.90;;;;;;;;;;5151813;27;20286;-78
2022/10/13 09:51:36;;;;;;;1999.90;999.90;;;;;;;;;;5150923;27;20231;-78
2022/10/13 09:54:26;;;;;;;1999.90;999.90;;;;;;;;;;5138141;27;20229;-78
2022/10/13 09:56:59;;;;;;;1999.90;999.90;;;;;;;;;;5152946;27;20320;-77
2022/10/13 09:59:32;;;;;;;1999.90;999.90;;;;;;;;;;5152784;27;20265;-79
2022/10/13 10:02:01;;;;;;;1999.90;999.90;;;;;;;;;;5134237;27;20293;-79
2022/10/13 10:04:31;;;;;;;1999.90;999.90;;;;;;;;;;5163514;27;20228;-77
2022/10/13 10:06:59;;;;;;;1999.90;999.90;;;;;;;;;;5170368;27;20710;-78
2022/10/13 10:09:33;;;;;;;1999.90;999.90;;;;;;;;;;5170933;27;20228;-77
2022/10/13 10:12:03;;;;;;;1999.90;999.90;;;;;;;;;;5168151;27;20226;-78
2022/10/13 10:14:32;;;;;;;1999.90;999.90;;;;;;;;;;5169476;27;20261;-74
2022/10/13 10:17:03;;;;;;;1999.90;999.90;;;;;;;;;;5153674;27;20225;-76
2022/10/13 10:19:38;;;;;;;1999.90;999.90;;;;;;;;;;5150914;27;20435;-73
2022/10/13 10:22:10;;;;;;;1999.90;999.90;;;;;;;;;;5174210;27;20276;-77
2022/10/13 10:24:42;;;;;;;1999.90;999.90;;;;;;;;;;5155328;27;20412;-76
2022/10/13 10:27:16;;;;;;;1999.90;999.90;;;;;;;;;;5153540;27;20232;-77
2022/10/13 10:29:48;;;;;;;1999.90;999.90;;;;;;;;;;5171790;27;20232;-74
2022/10/13 10:32:24;;;;;;;1999.90;999.90;;;;;;;;;;5168427;27;20235;-74
2022/10/13 10:34:54;;;;;;;1999.90;999.90;;;;;;;;;;5174205;27;20247;-78
2022/10/13 10:37:35;;;;;;;1999.90;999.90;;;;;;;;;;5175238;27;20953;-74
2022/10/13 10:40:08;;;;;;;1999.90;999.90;;;;;;;;;;5173043;27;20228;-78
2022/10/13 10:42:54;;;;;;;1999.90;999.90;;;;;;;;;;5156515;27;21352;-76
2022/10/13 10:45:25;;;;;;;1999.90;999.90;;;;;;;;;;5154038;27;20220;-77
2022/10/13 10:47:55;;;;;;;1999.90;999.90;;;;;;;;;;5154002;27;20261;-77
2022/10/13 10:50:24;;;;;;;1999.90;999.90;;;;;;;;;;5174938;27;21155;-76
2022/10/13 10:52:56;;;;;;;1999.90;999.90;;;;;;;;;;5171952;27;20293;-76
2022/10/13 10:55:27;;;;;;;1999.90;999.90;;;;;;;;;;5153922;27;20443;-75
2022/10/13 10:58:01;;;;;;;1999.90;999.90;;;;;;;;;;5182082;27;20232;-75
2022/10/13 11:00:33;;;;;;;1999.90;999.90;;;;;;;;;;5148299;27;20425;-75
2022/10/13 11:03:04;;;;;;;1999.90;999.90;;;;;;;;;;5190603;27;20455;-76
2022/10/13 11:05:47;;;;;;;1999.90;999.90;;;;;;;;;;5174118;27;20355;-76
2022/10/13 11:08:26;;;;;;;1999.90;999.90;;;;;;;;;;5182138;27;20236;-76
2022/10/13 11:11:09;;;;;;;1999.90;999.90;;;;;;;;;;5171089;27;20263;-73
2022/10/13 11:13:49;;;;;;;1999.90;999.90;;;;;;;;;;5152930;27;20236;-75
2022/10/13 11:16:27;;;;;;;1999.90;999.90;;;;;;;;;;5152200;27;20236;-77
2022/10/13 11:18:57;;;;;;;1999.90;999.90;;;;;;;;;;5151135;27;21083;-75
2022/10/13 11:21:47;;;;;;;1999.90;999.90;;;;;;;;;;5149032;27;20900;-76
2022/10/13 11:24:37;;;;;;;1999.90;999.90;;;;;;;;;;5150766;27;20259;-75
2022/10/13 11:27:23;;;;;;;1999.90;999.90;;;;;;;;;;5118740;27;20445;-76
2022/10/13 11:29:53;;;;;;;1999.90;999.90;;;;;;;;;;5167325;27;20402;-76
2022/10/13 11:32:53;;;;;;;1999.90;999.90;;;;;;;;;;5151105;27;20304;-76
2022/10/13 11:35:26;;;;;;;1999.90;999.90;;;;;;;;;;5170747;27;20386;-76
2022/10/13 11:38:22;;;;;;;1999.90;999.90;;;;;;;;;;5149801;27;20429;-75
2022/10/13 11:41:02;;;;;;;1999.90;999.90;;;;;;;;;;5133528;27;20298;-75
2022/10/13 11:43:40;;;;;;;1999.90;999.90;;;;;;;;;;5152494;27;20229;-76
2022/10/13 11:46:25;;;;;;;1999.90;999.90;;;;;;;;;;5168861;27;20216;-77
2022/10/13 11:49:14;;;;;;;1999.90;999.90;;;;;;;;;;5166760;27;20243;-77
2022/10/13 11:51:50;;;;;;;1999.90;999.90;;;;;;;;;;5150658;27;20933;-77
2022/10/13 11:54:23;;;;;;;1999.90;999.90;;;;;;;;;;5152180;27;20324;-77
2022/10/13 11:56:52;;;;;;;1999.90;999.90;;;;;;;;;;5151721;27;20420;-77
2022/10/13 11:59:23;;;;;;;1999.90;999.90;;;;;;;;;;5171189;27;20496;-76
2022/10/13 12:01:54;;;;;;;1999.90;999.90;;;;;;;;;;5169156;27;20383;-76
2022/10/13 12:04:23;;;;;;;1999.90;999.90;;;;;;;;;;5171659;27;20455;-76
2022/10/13 12:06:56;;;;;;;1999.90;999.90;;;;;;;;;;5153422;27;20459;-76
2022/10/13 12:09:24;;;;;;;1999.90;999.90;;;;;;;;;;5160027;27;20405;-76
2022/10/13 12:11:56;;;;;;;1999.90;999.90;;;;;;;;;;5148458;27;20427;-76
2022/10/13 12:14:29;;;;;;;1999.90;999.90;;;;;;;;;;5168886;27;20462;-75
2022/10/13 12:16:58;;;;;;;1999.90;999.90;;;;;;;;;;5142271;27;20414;-76
2022/10/13 12:19:27;;;;;;;1999.90;999.90;;;;;;;;;;5164063;27;20422;-74
2022/10/13 12:21:56;;;;;;;1999.90;999.90;;;;;;;;;;5149771;27;20398;-74
2022/10/13 12:24:26;;;;;;;1999.90;999.90;;;;;;;;;;5149429;27;20389;-78
2022/10/13 12:26:54;;;;;;;1999.90;999.90;;;;;;;;;;5164982;27;20466;-76
2022/10/13 12:29:24;;;;;;;1999.90;999.90;;;;;;;;;;5149316;27;20394;-74
2022/10/13 12:31:53;;;;;;;1999.90;999.90;;;;;;;;;;5167683;27;20374;-74
2022/10/13 12:34:23;;;;;;;1999.90;999.90;;;;;;;;;;5167822;27;20387;-74
2022/10/13 12:36:55;;;;;;;1999.90;999.90;;;;;;;;;;5168177;27;20469;-75
2022/10/13 12:39:25;;;;;;;1999.90;999.90;;;;;;;;;;5139759;27;20467;-76
2022/10/13 12:41:53;;;;;;;1999.90;999.90;;;;;;;;;;5162290;27;20456;-75
2022/10/13 12:44:22;;;;;;;1999.90;999.90;;;;;;;;;;5165428;27;20404;-75
2022/10/13 12:46:52;;;;;;;1999.90;999.90;;;;;;;;;;5148898;27;20487;-76
2022/10/13 12:49:23;;;;;;;1999.90;999.90;;;;;;;;;;5168052;27;20390;-74
2022/10/13 12:51:52;;;;;;;1999.90;999.90;;;;;;;;;;5130741;27;20888;-74
2022/10/13 12:54:22;;;;;;;1999.90;999.90;;;;;;;;;;5130014;27;21155;-74
2022/10/13 12:56:52;;;;;;;1999.90;999.90;;;;;;;;;;5164522;27;20374;-74
2022/10/13 12:59:24;;;;;;;1999.90;999.90;;;;;;;;;;5130469;27;20419;-77
2022/10/13 13:01:56;;;;;;;1999.90;999.90;;;;;;;;;;5146936;27;20383;-75
2022/10/13 13:04:39;;;;;;;1999.90;999.90;;;;;;;;;;5166695;27;20900;-77
2022/10/13 13:07:22;;;;;;;1999.90;999.90;;;;;;;;;;5160817;27;20425;-74
2022/10/13 13:09:59;;;;;;;1999.90;999.90;;;;;;;;;;5165204;27;20406;-75
2022/10/13 13:12:27;;;;;;;1999.90;999.90;;;;;;;;;;5127108;27;20225;-74
2022/10/13 13:14:55;;;;;;;1999.90;999.90;;;;;;;;;;5161137;27;20413;-74
2022/10/13 13:17:31;;;;;;;1999.90;999.90;;;;;;;;;;5156728;27;20507;-75
2022/10/13 13:20:21;;;;;;;1999.90;999.90;;;;;;;;;;5143540;27;20489;-74
2022/10/13 13:22:50;;;;;;;1999.90;999.90;;;;;;;;;;5129391;27;20394;-75
2022/10/13 13:25:18;;;;;;;1999.90;999.90;;;;;;;;;;5145415;27;20904;-75
2022/10/13 13:27:46;;;;;;;1999.90;999.90;;;;;;;;;;5159210;27;20434;-76
2022/10/13 13:30:17;;;;;;;1999.90;999.90;;;;;;;;;;5165516;27;20960;-74
2022/10/13 13:32:45;;;;;;;1999.90;999.90;;;;;;;;;;5145527;27;20395;-72
2022/10/13 13:35:13;;;;;;;1999.90;999.90;;;;;;;;;;5142346;27;20387;-74
2022/10/13 13:37:43;;;;;;;1999.90;999.90;;;;;;;;;;5179781;27;20370;-73
2022/10/13 13:40:14;;;;;;;1999.90;999.90;;;;;;;;;;5180914;27;20401;-73
2022/10/13 13:42:42;;;;;;;1999.90;999.90;;;;;;;;;;5142731;27;20491;-74
2022/10/13 13:45:12;;;;;;;1999.90;999.90;;;;;;;;;;5158512;27;20393;-74
2022/10/13 13:47:39;;;;;;;1999.90;999.90;;;;;;;;;;5161161;27;20402;-74
2022/10/13 13:50:13;;;;;;;1999.90;999.90;;;;;;;;;;5144361;27;20398;-75
2022/10/13 13:52:43;;;;;;;1999.90;999.90;;;;;;;;;;5141377;27;20382;-75
2022/10/13 13:55:11;;;;;;;1999.90;999.90;;;;;;;;;;5159531;27;20717;-73
2022/10/13 13:57:39;;;;;;;1999.90;999.90;;;;;;;;;;5161833;27;21095;-77
2022/10/13 14:00:07;;;;;;;1999.90;999.90;;;;;;;;;;5158229;27;20499;-75
2022/10/13 14:02:38;;;;;;;1999.90;999.90;;;;;;;;;;5145173;27;20384;-75